createdAt,value
2023-08-12T00:12:20.053Z,0.06
2023-08-12T00:27:20.237Z,0.03
2023-08-12T00:42:20.539Z,0.38
2023-08-12T00:57:20.201Z,0.00
2023-08-12T01:12:20.369Z,0.05
2023-08-12T01:27:20.298Z,0.08
2023-08-12T01:42:20.312Z,0.06
2023-08-12T01:57:20.176Z,0.10
2023-08-12T02:12:20.229Z,0.17
2023-08-12T02:27:20.185Z,0.06
2023-08-12T02:42:20.468Z,0.00
2023-08-12T02:57:20.264Z,0.10
2023-08-12T03:12:20.483Z,0.08
2023-08-12T03:27:20.414Z,0.08
2023-08-12T03:42:20.397Z,0.11
2023-08-12T03:57:20.364Z,0.41
2023-08-12T04:12:20.499Z,0.49
2023-08-12T04:27:20.547Z,0.09
2023-08-12T04:42:20.606Z,0.12
2023-08-12T04:57:20.584Z,0.05
2023-08-12T05:12:20.569Z,0.00
2023-08-12T05:27:20.679Z,0.00
2023-08-12T05:42:20.700Z,0.68
2023-08-12T05:57:20.725Z,0.85
2023-08-12T06:12:20.824Z,0.90
2023-08-12T06:27:20.830Z,1.63
2023-08-12T06:42:20.861Z,1.32
2023-08-12T06:57:20.845Z,1.67
2023-08-12T07:12:20.925Z,1.81
2023-08-12T07:27:21.264Z,1.88
2023-08-12T07:42:20.914Z,1.97
2023-08-12T07:57:21.060Z,1.80
2023-08-12T08:12:21.043Z,1.65
2023-08-12T08:27:21.085Z,2.21
2023-08-12T08:42:21.166Z,2.22
2023-08-12T08:57:22.913Z,1.80
2023-08-12T09:12:21.297Z,2.40
2023-08-12T09:27:21.226Z,2.19
2023-08-12T09:42:21.226Z,1.85
2023-08-12T09:57:21.496Z,2.04
2023-08-12T10:12:21.757Z,2.39
2023-08-12T10:27:21.201Z,2.65
2023-08-12T10:42:21.558Z,2.23
2023-08-12T10:57:21.497Z,2.47
2023-08-12T11:12:21.458Z,1.50
2023-08-12T11:27:21.477Z,1.59
2023-08-12T11:42:21.598Z,1.89
2023-08-12T11:57:21.480Z,3.10
2023-08-12T12:12:21.581Z,1.78
2023-08-12T12:27:21.689Z,1.40
2023-08-12T12:42:21.549Z,0.54
2023-08-12T12:57:21.955Z,1.41
2023-08-12T13:12:21.820Z,1.33
2023-08-12T13:27:21.923Z,1.71
2023-08-12T13:42:22.064Z,3.31
2023-08-12T13:57:21.906Z,3.03
2023-08-12T14:12:21.870Z,3.38
2023-08-12T14:27:21.871Z,4.03
2023-08-12T14:42:22.007Z,3.17
2023-08-12T14:57:21.971Z,4.29
2023-08-12T15:12:22.007Z,4.55
2023-08-12T15:27:22.070Z,4.64
2023-08-12T15:42:22.133Z,4.90
2023-08-12T15:57:22.158Z,3.97
2023-08-12T16:12:22.090Z,3.84
2023-08-12T16:27:22.163Z,4.03
2023-08-12T16:42:22.992Z,4.26
2023-08-12T16:57:22.234Z,3.81
2023-08-12T17:12:22.622Z,3.87
2023-08-12T17:27:22.405Z,3.29
2023-08-12T17:42:22.489Z,3.05
2023-08-12T17:57:22.358Z,2.65
2023-08-12T18:12:25.470Z,2.31
2023-08-12T18:27:22.484Z,1.17
2023-08-12T18:42:22.549Z,0.29
2023-08-12T18:57:22.564Z,0.09
2023-08-12T19:12:22.403Z,0.02
2023-08-12T19:27:22.781Z,0.04
2023-08-12T19:42:22.803Z,0.01
2023-08-12T19:57:22.727Z,0.00
2023-08-12T20:12:22.785Z,0.01
2023-08-12T20:27:22.734Z,0.00
2023-08-12T20:42:22.844Z,0.02
2023-08-12T20:57:22.850Z,0.00
2023-08-12T21:12:22.969Z,0.01
2023-08-12T21:27:22.941Z,0.00
2023-08-12T21:42:22.935Z,0.00
2023-08-12T21:57:22.977Z,0.00
2023-08-12T22:12:23.018Z,0.00
2023-08-12T22:27:23.068Z,0.00
2023-08-12T22:42:23.133Z,0.06
2023-08-12T22:57:23.104Z,0.04
2023-08-12T23:12:23.161Z,0.13
2023-08-12T23:27:23.288Z,0.24
2023-08-12T23:42:23.482Z,0.53
2023-08-12T23:57:23.358Z,0.11
